Latest Coastal Weather Observations for Rosslyn Bay Harbour

IDQ60701

Issued at 10:21 am EST Wednesday 28 June 2017 (issued every 10 minutes, with the page automatically refreshed every 10 minutes)

About coastal observations | Map of coastal stations | Coastal observations for QLD | Marine services | Other Formats
Station Details ID: 033208 Name: ROSSLYN BAY NTC AWS Lat: -23.16 Lon: 150.79 Height: 0.0 m
Data from the previous 72 hours. | See also: Recent months for locations in Queensland
Date/Time
EST
Temp
°C
Wind Pressure Rain since
9am
mm
Weather Cloud Vis
km
Sea
Height
m
Swell
Dir  Spd
kts
Gust
kts
hPa Trend Height
m
Period
s
Dir
28/10:00am 22.7 SW 2 7 1022.3 - - - - - - - - -
28/09:30am 22.7 NNW 2 8 1022.3 - - - - - - - - -
28/09:00am 22.3 SSE 2 7 1022.3 - - - - - - - - -
28/08:30am 22.1 WNW 2 7 1021.9 - - - - - - - - -
28/08:00am 21.8 W 2 7 1021.9 - - - - - - - - -
28/07:30am 21.7 W 3 7 1021.5 - - - - - - - - -
28/07:00am 21.5 W 3 5 1021.3 - - - - - - - - -
28/06:30am 21.4 SW 3 9 1021.1 - - - - - - - - -
28/06:00am 21.4 WNW 2 5 1020.9 - - - - - - - - -
28/05:30am 21.4 NNE 1 6 1020.8 - - - - - - - - -
28/05:00am 21.5 W 2 5 1020.5 - - - - - - - - -
28/04:30am 21.4 NE 1 7 1020.5 - - - - - - - - -
28/04:00am 21.4 ENE 1 7 1020.6 - - - - - - - - -
28/03:30am 21.5 E 2 6 1020.8 - - - - - - - - -
28/03:00am 21.5 ENE 1 5 1021.0 - - - - - - - - -
28/02:30am 21.5 E 1 8 1021.1 - - - - - - - - -
28/02:00am 21.5 E 2 8 1021.2 - - - - - - - - -
28/01:30am 21.7 ENE 2 7 1021.5 - - - - - - - - -
28/01:00am 21.8 ENE 3 6 1021.7 - - - - - - - - -
28/12:30am 21.9 ENE 6 12 1021.7 - - - - - - - - -
28/12:00am 21.8 ENE 5 10 1021.8 - - - - - - - - -
 
Date/Time
EST
Temp
°C
Wind Pressure Rain since
9am
mm
Weather Cloud Vis
km
Sea
Height
m
Swell
Dir  Spd
kts
Gust
kts
hPa Trend Height
m
Period
s
Dir
27/11:30pm 21.5 NE 1 5 1021.9 - - - - - - - - -
27/11:00pm 21.1 CALM 0 2 1022.1 - - - - - - - - -
27/10:30pm 21.1 S 2 5 1022.2 - - - - - - - - -
27/10:00pm 21.1 S 5 8 1022.4 - - - - - - - - -
27/09:30pm 21.0 S 6 9 1022.3 - - - - - - - - -
27/09:00pm 21.1 S 5 8 1022.3 - - - - - - - - -
27/08:30pm 21.1 S 7 11 1022.3 - - - - - - - - -
27/08:00pm 21.0 S 6 9 1022.3 - - - - - - - - -
27/07:30pm 21.2 S 6 11 1022.0 - - - - - - - - -
27/07:00pm 21.3 S 6 10 1022.1 - - - - - - - - -
27/06:30pm 21.2 S 5 9 1021.9 - - - - - - - - -
27/06:00pm 21.2 S 5 11 1021.8 - - - - - - - - -
27/05:30pm 21.1 S 5 9 1021.7 - - - - - - - - -
27/05:00pm 21.1 S 6 9 1021.6 - - - - - - - - -
27/04:30pm 21.1 S 7 12 1021.2 - - - - - - - - -
27/04:00pm 21.0 S 6 9 1021.1 - - - - - - - - -
27/03:30pm 21.2 S 7 12 1020.8 - - - - - - - - -
27/03:00pm 21.1 S 7 11 1020.8 - - - - - - - - -
27/02:30pm 21.1 S 8 11 1020.7 - - - - - - - - -
27/02:00pm 20.9 S 9 12 1020.7 - - - - - - - - -
27/01:30pm 20.8 S 9 13 1020.8 - - - - - - - - -
27/01:00pm 20.9 S 9 13 1021.2 - - - - - - - - -
27/12:30pm 20.8 S 9 12 1021.6 - - - - - - - - -
27/12:00pm 20.7 S 9 13 1022.1 - - - - - - - - -
27/11:30am 20.7 S 8 13 1022.5 - - - - - - - - -
27/11:00am 20.4 S 5 10 1022.8 - - - - - - - - -
27/10:30am 20.1 SSE 7 12 1022.8 - - - - - - - - -
27/10:00am 20.1 S 6 11 1023.0 - - - - - - - - -
27/09:30am 19.7 S 4 9 1022.8 - - - - - - - - -
27/09:00am 18.5 S 4 8 1022.7 - - - - - - - - -
27/08:30am 17.5 SSW 4 7 1022.4 - - - - - - - - -
27/08:00am 17.0 S 4 7 1022.2 - - - - - - - - -
27/07:30am 16.7 SSW 5 9 1021.7 - - - - - - - - -
27/07:00am 17.2 S 4 8 1021.5 - - - - - - - - -
27/06:30am 16.6 S 3 5 1021.3 - - - - - - - - -
27/06:00am 17.0 S 5 7 1021.0 - - - - - - - - -
27/05:30am 17.0 S 4 7 1020.9 - - - - - - - - -
27/05:00am 17.3 S 5 8 1020.7 - - - - - - - - -
27/04:30am 17.2 S 5 6 1020.5 - - - - - - - - -
27/04:00am 17.1 S 4 6 1020.7 - - - - - - - - -
27/03:30am 17.2 S 4 6 1020.8 - - - - - - - - -
27/03:00am 17.3 SSE 4 5 1020.8 - - - - - - - - -
27/02:30am 17.1 S 4 6 1020.8 - - - - - - - - -
27/02:00am 17.4 SSE 4 5 1020.8 - - - - - - - - -
27/01:30am 18.1 S 3 4 1020.8 - - - - - - - - -
27/01:00am 18.4 S 1 2 1020.8 - - - - - - - - -
27/12:30am 18.6 S 2 3 1021.0 - - - - - - - - -
27/12:00am 18.7 SSE 1 4 1021.1 - - - - - - - - -
 
Date/Time
EST
Temp
°C
Wind Pressure Rain since
9am
mm
Weather Cloud Vis
km
Sea
Height
m
Swell
Dir  Spd
kts
Gust
kts
hPa Trend Height
m
Period
s
Dir
26/11:30pm 18.4 S 3 4 1021.4 - - - - - - - - -
26/11:00pm 20.6 SSW 1 3 1021.4 - - - - - - - - -
26/10:30pm 20.7 NE 2 5 1021.4 - - - - - - - - -
26/10:00pm 20.8 WNW 2 10 1021.4 - - - - - - - - -
26/09:30pm 20.7 WNW 1 5 1021.2 - - - - - - - - -
26/09:00pm 20.7 ESE 1 4 1021.1 - - - - - - - - -
26/08:30pm 20.6 SSW 1 4 1021.2 - - - - - - - - -
26/08:00pm 20.6 SSW 2 4 1021.1 - - - - - - - - -
26/07:30pm 20.3 S 2 3 1020.7 - - - - - - - - -
26/07:00pm 20.2 S 2 3 1020.5 - - - - - - - - -
26/06:30pm 20.5 S 2 4 1020.2 - - - - - - - - -
26/06:00pm 20.9 S 2 4 1019.8 - - - - - - - - -
26/05:30pm 21.0 CALM 0 3 1019.4 - - - - - - - - -
26/05:00pm 21.3 SSW 1 3 1019.3 - - - - - - - - -
26/04:30pm 21.7 S 1 4 1019.3 - - - - - - - - -
26/04:00pm 21.7 SSW 1 3 1019.3 - - - - - - - - -
26/03:30pm 21.6 S 4 6 1019.3 - - - - - - - - -
26/03:00pm 21.9 S 2 4 1019.0 - - - - - - - - -
26/02:30pm 21.4 S 5 7 1019.1 - - - - - - - - -
26/02:00pm 21.2 S 5 7 1019.3 - - - - - - - - -
26/01:30pm 21.2 S 6 7 1019.4 - - - - - - - - -
26/01:00pm 20.8 S 5 7 1019.6 - - - - - - - - -
26/12:30pm 20.9 S 5 8 1019.8 - - - - - - - - -
26/12:00pm 20.2 S 6 8 1020.3 - - - - - - - - -
26/11:30am 20.2 S 6 9 1020.5 - - - - - - - - -
26/11:00am 20.3 S 6 8 1020.8 - - - - - - - - -
26/10:30am 20.5 S 3 6 1021.1 - - - - - - - - -
26/10:00am 20.5 S 3 6 1021.2 - - - - - - - - -
26/09:30am 19.2 SSE 5 7 1020.8 - - - - - - - - -
26/09:00am 19.2 SSE 4 6 1020.6 - - - - - - - - -
26/08:30am 18.4 SSW 1 5 1020.4 - - - - - - - - -
26/08:00am 17.1 S 3 5 1020.2 - - - - - - - - -
26/07:30am 16.4 S 5 6 1020.0 - - - - - - - - -
26/07:00am 15.9 S 4 7 1019.6 - - - - - - - - -
26/06:30am 16.0 S 4 7 1019.3 - - - - - - - - -
26/06:00am 16.2 S 4 7 1018.9 - - - - - - - - -
26/05:30am 16.1 S 4 8 1018.6 - - - - - - - - -
26/05:00am 16.2 S 5 7 1018.4 - - - - - - - - -
26/04:30am 16.8 S 6 7 1018.3 - - - - - - - - -
26/04:00am 16.9 S 5 6 1018.3 - - - - - - - - -
26/03:30am 16.7 S 5 7 1018.5 - - - - - - - - -
26/03:00am 17.1 S 4 6 1018.4 - - - - - - - - -
26/02:30am 17.0 S 4 5 1018.5 - - - - - - - - -
26/02:00am 17.1 S 4 6 1018.6 - - - - - - - - -
26/01:30am 17.4 SSE 4 6 1018.9 - - - - - - - - -
26/01:00am 17.7 S 4 6 1019.1 - - - - - - - - -
26/12:30am 18.0 S 4 5 1019.1 - - - - - - - - -
26/12:00am 18.0 S 4 5 1019.0 - - - - - - - - -
 
Date/Time
EST
Temp
°C
Wind Pressure Rain since
9am
mm
Weather Cloud Vis
km
Sea
Height
m
Swell
Dir  Spd
kts
Gust
kts
hPa Trend Height
m
Period
s
Dir
25/11:30pm 18.6 S 4 5 1019.0 - - - - - - - - -
25/11:00pm 18.8 S 2 4 1019.3 - - - - - - - - -
25/10:30pm 20.9 ENE 1 5 1019.4 - - - - - - - - -
25/10:00pm 20.9 E 2 5 1019.3 - - - - - - - - -
25/09:30pm 20.8 ENE 2 5 1019.3 - - - - - - - - -
25/09:00pm 20.9 E 1 5 1019.2 - - - - - - - - -
25/08:30pm 21.0 E 2 6 1019.0 - - - - - - - - -
25/08:00pm 21.0 E 2 5 1018.7 - - - - - - - - -
25/07:30pm 21.0 SSE 2 7 1018.4 - - - - - - - - -
25/07:00pm 21.0 ESE 1 6 1018.0 - - - - - - - - -
25/06:30pm 21.1 SSE 2 5 1017.7 - - - - - - - - -
25/06:00pm 21.2 ESE 2 5 1017.4 - - - - - - - - -
25/05:30pm 21.1 ESE 1 9 1017.2 - - - - - - - - -
25/05:00pm 21.3 E 2 6 1017.2 - - - - - - - - -
25/04:30pm 21.8 ESE 2 5 1017.1 - - - - - - - - -
25/04:00pm 22.0 ESE 1 5 1017.1 - - - - - - - - -
25/03:30pm 22.8 ENE 1 5 1017.1 - - - - - - - - -
25/03:00pm 23.1 NNW 1 4 1016.9 - - - - - - - - -
25/02:30pm 22.5 WSW 1 3 1017.0 - - - - - - - - -
25/02:00pm 22.4 SSW 1 5 1017.0 - - - - - - - - -
25/01:30pm 21.8 S 4 6 1017.2 - - - - - - - - -
25/01:00pm 21.4 S 5 8 1017.4 - - - - - - - - -
25/12:30pm 21.1 S 7 9 1017.8 - - - - - - - - -
25/12:00pm 21.6 S 5 8 1018.1 - - - - - - - - -
25/11:30am 20.8 SSE 5 7 1018.7 - - - - - - - - -
25/11:00am 20.2 S 5 7 1019.0 - - - - - - - - -
25/10:30am 20.0 SSE 4 6 1019.3 - - - - - - - - -

Other Formats:

Comma delimited format used in spreadsheet applications
http://www.bom.gov.au/fwo/IDQ60701/IDQ60701.95298.axf

JavaScript Object Notation format (JSON) in row-major order
http://www.bom.gov.au/fwo/IDQ60701/IDQ60701.95298.json